createdAt,value
2017-05-31T00:00:06.232Z,0
2017-05-31T00:01:15.954Z,0
2017-05-31T00:02:26.311Z,0
2017-05-31T00:03:36.719Z,0
2017-05-31T00:04:46.756Z,0
2017-05-31T00:05:56.482Z,0
2017-05-31T00:07:06.529Z,0
2017-05-31T00:08:16.571Z,0
2017-05-31T00:09:26.981Z,0
2017-05-31T00:10:37.329Z,0
2017-05-31T00:11:47.424Z,0
2017-05-31T00:12:57.467Z,0
2017-05-31T00:14:07.513Z,0
2017-05-31T00:15:17.867Z,0
2017-05-31T00:16:28.238Z,0
2017-05-31T00:17:38.268Z,0
2017-05-31T00:18:48.309Z,0
2017-05-31T00:19:58.662Z,0
2017-05-31T00:21:08.748Z,0
2017-05-31T00:22:19.120Z,0
2017-05-31T00:23:29.468Z,0
2017-05-31T00:24:39.505Z,0
2017-05-31T00:25:49.863Z,0
2017-05-31T00:26:59.950Z,0
2017-05-31T00:28:10.300Z,0
2017-05-31T00:29:20.344Z,0
2017-05-31T00:30:30.687Z,0
2017-05-31T00:31:40.736Z,0
2017-05-31T00:32:51.134Z,0
2017-05-31T00:34:01.180Z,0
2017-05-31T00:35:11.542Z,0
2017-05-31T00:36:21.897Z,0
2017-05-31T00:37:31.935Z,0
2017-05-31T00:38:42.347Z,0
2017-05-31T00:39:52.385Z,0
2017-05-31T00:41:02.736Z,0
2017-05-31T00:42:13.082Z,0
2017-05-31T00:43:23.140Z,0
2017-05-31T00:44:33.545Z,0
2017-05-31T00:45:43.262Z,0
2017-05-31T00:46:53.608Z,0
2017-05-31T00:48:03.645Z,0
2017-05-31T00:49:13.368Z,0
2017-05-31T00:50:23.160Z,0
2017-05-31T00:51:33.226Z,0
2017-05-31T00:52:43.571Z,0
2017-05-31T00:53:53.933Z,0
2017-05-31T00:55:04.276Z,0
2017-05-31T00:56:14.356Z,0
2017-05-31T00:57:24.382Z,0
2017-05-31T00:58:34.103Z,0
2017-05-31T00:59:44.138Z,0
2017-05-31T01:00:54.481Z,0
2017-05-31T01:02:04.828Z,0
2017-05-31T01:03:14.869Z,0
2017-05-31T01:04:24.912Z,0
2017-05-31T01:05:34.661Z,0
2017-05-31T01:06:45.003Z,0
2017-05-31T01:07:55.104Z,0
2017-05-31T01:09:05.463Z,0
2017-05-31T01:10:15.496Z,0
2017-05-31T01:11:25.860Z,0
2017-05-31T01:12:35.906Z,0
2017-05-31T01:13:46.340Z,0
2017-05-31T01:14:56.391Z,0
2017-05-31T01:16:06.739Z,0
2017-05-31T01:17:16.774Z,0
2017-05-31T01:18:27.153Z,0
2017-05-31T01:19:37.559Z,0
2017-05-31T01:20:47.594Z,0
2017-05-31T01:21:57.949Z,0
2017-05-31T01:23:07.994Z,0
2017-05-31T01:24:18.353Z,0
2017-05-31T01:25:28.697Z,0
2017-05-31T01:26:39.063Z,0
2017-05-31T01:27:49.092Z,0
2017-05-31T01:28:59.448Z,0
2017-05-31T01:30:09.489Z,0
2017-05-31T01:31:19.829Z,0
2017-05-31T01:32:30.189Z,0
2017-05-31T01:33:40.530Z,0
2017-05-31T01:34:50.883Z,0
2017-05-31T01:36:01.244Z,0
2017-05-31T01:37:11.643Z,0
2017-05-31T01:38:21.687Z,0
2017-05-31T01:39:31.723Z,0
2017-05-31T01:40:41.755Z,0
2017-05-31T01:41:51.787Z,0
2017-05-31T01:43:02.184Z,0
2017-05-31T01:44:12.541Z,0
2017-05-31T01:45:22.897Z,0
2017-05-31T01:46:32.953Z,0
2017-05-31T01:47:43.310Z,0
2017-05-31T01:48:53.707Z,0
2017-05-31T01:50:04.105Z,0
2017-05-31T01:51:14.451Z,0
2017-05-31T01:52:24.497Z,0
2017-05-31T01:53:34.844Z,0
2017-05-31T01:54:45.251Z,0
2017-05-31T01:55:54.975Z,0
2017-05-31T01:57:05.325Z,0
2017-05-31T01:58:15.362Z,0
2017-05-31T01:59:25.772Z,0
2017-05-31T02:00:35.806Z,0
2017-05-31T02:01:46.171Z,0
2017-05-31T02:02:56.208Z,0
2017-05-31T02:04:06.245Z,0
2017-05-31T02:05:16.277Z,0
2017-05-31T02:06:26.419Z,0
2017-05-31T02:07:36.465Z,0
2017-05-31T02:08:46.827Z,0
2017-05-31T02:09:57.185Z,0
2017-05-31T02:11:07.531Z,0
2017-05-31T02:12:17.640Z,0
2017-05-31T02:13:28.008Z,0
2017-05-31T02:14:38.375Z,0
2017-05-31T02:15:48.403Z,0
2017-05-31T02:16:58.456Z,0
2017-05-31T02:18:08.557Z,0
2017-05-31T02:19:18.920Z,0
2017-05-31T02:20:29.276Z,0
2017-05-31T02:21:39.640Z,0
2017-05-31T02:22:50.000Z,0
2017-05-31T02:24:00.396Z,0
2017-05-31T02:25:10.770Z,0
2017-05-31T02:26:21.118Z,0
2017-05-31T02:27:31.480Z,0
2017-05-31T02:28:41.854Z,0
2017-05-31T02:29:51.892Z,0
2017-05-31T02:31:02.265Z,0
2017-05-31T02:32:12.003Z,0
2017-05-31T02:33:22.361Z,0
2017-05-31T02:34:32.720Z,4
2017-05-31T02:35:42.193Z,4
2017-05-31T02:36:51.926Z,4
2017-05-31T02:38:02.279Z,0
2017-05-31T02:39:12.334Z,0
2017-05-31T02:40:22.691Z,4
2017-05-31T02:41:32.791Z,4
2017-05-31T02:42:42.822Z,4
2017-05-31T02:43:53.177Z,4
2017-05-31T02:45:03.529Z,4
2017-05-31T02:46:13.578Z,8
2017-05-31T02:47:23.656Z,4
2017-05-31T02:48:34.007Z,4
2017-05-31T02:49:44.063Z,8
2017-05-31T02:50:54.431Z,8
2017-05-31T02:52:04.813Z,8
2017-05-31T02:53:15.170Z,12
2017-05-31T02:54:25.512Z,12
2017-05-31T02:55:35.861Z,16
2017-05-31T02:56:46.217Z,20
2017-05-31T02:57:56.595Z,20
2017-05-31T02:59:06.697Z,24
2017-05-31T03:00:17.064Z,28
2017-05-31T03:01:27.414Z,32
2017-05-31T03:33:50.235Z,1172
2017-05-31T03:35:00.619Z,1232
2017-05-31T03:36:10.654Z,1296
2017-05-31T03:37:21.002Z,1364
2017-05-31T03:38:31.364Z,1428
2017-05-31T03:39:41.409Z,1496
2017-05-31T03:40:51.437Z,1548
2017-05-31T03:42:01.486Z,1600
2017-05-31T03:43:11.837Z,1640
2017-05-31T03:44:22.187Z,1680
2017-05-31T03:45:32.270Z,1708
2017-05-31T03:46:42.629Z,1736
2017-05-31T03:47:52.976Z,1760
2017-05-31T03:49:03.020Z,1776
2017-05-31T03:50:13.381Z,1788
2017-05-31T03:51:24.131Z,1800
2017-05-31T03:52:34.482Z,1816
2017-05-31T03:53:44.844Z,1828
2017-05-31T03:54:55.195Z,1840
2017-05-31T03:56:05.245Z,1856
2017-05-31T03:57:15.666Z,1880
2017-05-31T03:58:25.384Z,1908
2017-05-31T03:59:35.745Z,1948
2017-05-31T04:00:46.151Z,2004
2017-05-31T04:01:56.206Z,2076
2017-05-31T04:03:06.614Z,2184
2017-05-31T04:04:16.972Z,2348
2017-05-31T04:05:27.021Z,2552
2017-05-31T04:06:37.061Z,2780
2017-05-31T04:07:47.103Z,2980
2017-05-31T04:08:57.495Z,3208
2017-05-31T04:10:07.860Z,3436
2017-05-31T04:11:18.218Z,3640
2017-05-31T04:12:28.280Z,3844
2017-05-31T04:13:38.314Z,4048
2017-05-31T04:14:48.367Z,4220
2017-05-31T04:15:58.712Z,4376
2017-05-31T04:17:09.068Z,4452
2017-05-31T04:18:19.442Z,4624
2017-05-31T04:19:29.476Z,5904
2017-05-31T04:20:39.895Z,13632
2017-05-31T04:21:50.243Z,6964
2017-05-31T04:23:00.613Z,6324
2017-05-31T04:24:10.972Z,7176
2017-05-31T04:25:21.335Z,6384
2017-05-31T04:26:31.391Z,6372
2017-05-31T04:27:41.738Z,5532
2017-05-31T04:28:51.800Z,5512
2017-05-31T04:30:01.852Z,6244
2017-05-31T04:31:12.212Z,8040
2017-05-31T04:32:22.341Z,6732
2017-05-31T04:33:32.401Z,12316
2017-05-31T04:34:42.754Z,11676
2017-05-31T04:35:52.805Z,6368
2017-05-31T04:37:03.172Z,6560
2017-05-31T04:38:13.588Z,6452
2017-05-31T04:39:23.935Z,7548
2017-05-31T04:40:34.179Z,10252
2017-05-31T04:41:44.541Z,6440
2017-05-31T04:42:54.582Z,6456
2017-05-31T04:44:05.181Z,6640
2017-05-31T04:45:15.243Z,9716
2017-05-31T04:46:25.295Z,10940
2017-05-31T04:47:35.343Z,11916
2017-05-31T04:48:45.393Z,11940
2017-05-31T04:49:55.814Z,10908
2017-05-31T04:51:05.550Z,7672
2017-05-31T04:52:15.901Z,8764
2017-05-31T04:53:26.274Z,9700
2017-05-31T04:54:36.642Z,10196
2017-05-31T04:55:47.014Z,6888
2017-05-31T04:56:57.370Z,4992
2017-05-31T04:58:07.747Z,4416
2017-05-31T04:59:18.096Z,4292
2017-05-31T05:00:28.462Z,4108
2017-05-31T05:01:38.860Z,4000
2017-05-31T05:02:48.896Z,3948
2017-05-31T05:03:59.256Z,3892
2017-05-31T05:05:09.629Z,3884
2017-05-31T05:06:19.679Z,3776
2017-05-31T05:07:30.041Z,3708
2017-05-31T05:08:40.425Z,3708
2017-05-31T05:09:50.788Z,3772
2017-05-31T05:11:01.159Z,3968
2017-05-31T05:12:11.525Z,4052
2017-05-31T05:13:21.282Z,4604
2017-05-31T05:14:31.027Z,4792
2017-05-31T05:15:41.383Z,5284
2017-05-31T05:16:51.757Z,6120
2017-05-31T05:18:02.118Z,7964
2017-05-31T05:19:12.475Z,9660
2017-05-31T05:20:22.531Z,9040
2017-05-31T05:21:32.893Z,9668
2017-05-31T05:22:43.267Z,11032
2017-05-31T05:23:53.629Z,10532
2017-05-31T05:25:04.050Z,6780
2017-05-31T05:26:14.405Z,8396
2017-05-31T05:27:24.752Z,6560
2017-05-31T05:28:34.485Z,6312
2017-05-31T05:29:44.851Z,8120
2017-05-31T05:30:54.946Z,6628
2017-05-31T05:32:05.362Z,6892
2017-05-31T05:33:15.731Z,13400
2017-05-31T05:34:25.721Z,13088
2017-05-31T05:35:36.085Z,14784
2017-05-31T05:36:46.493Z,15040
2017-05-31T05:37:56.549Z,14976
2017-05-31T05:39:06.904Z,15072
2017-05-31T05:40:17.286Z,14784
2017-05-31T05:41:27.644Z,14656
2017-05-31T05:42:38.231Z,13252
2017-05-31T05:43:48.591Z,13788
2017-05-31T05:44:58.959Z,11996
2017-05-31T05:46:09.312Z,11592
2017-05-31T05:47:19.377Z,11792
2017-05-31T05:48:29.769Z,10728
2017-05-31T05:49:40.137Z,10888
2017-05-31T05:50:50.512Z,11540
2017-05-31T05:52:00.871Z,10524
2017-05-31T05:53:10.943Z,10548
2017-05-31T05:54:21.041Z,10016
2017-05-31T05:55:30.767Z,13308
2017-05-31T05:56:41.117Z,12392
2017-05-31T05:57:51.470Z,10872
2017-05-31T05:59:01.510Z,12208
2017-05-31T06:00:11.626Z,12796
2017-05-31T06:01:21.684Z,12660
2017-05-31T06:02:31.737Z,11560
2017-05-31T06:03:42.109Z,10312
2017-05-31T06:04:52.480Z,11296
2017-05-31T06:06:02.911Z,12224
2017-05-31T06:07:13.289Z,12488
2017-05-31T06:08:23.656Z,11760
2017-05-31T06:09:34.018Z,11484
2017-05-31T06:10:44.373Z,11308
2017-05-31T06:11:54.741Z,11636
2017-05-31T06:13:05.104Z,11372
2017-05-31T06:14:15.461Z,11140
2017-05-31T06:15:25.515Z,10552
2017-05-31T06:16:35.862Z,9264
2017-05-31T06:17:45.330Z,8104
2017-05-31T06:18:55.686Z,7952
2017-05-31T06:20:06.075Z,9172
2017-05-31T06:21:16.446Z,10800
2017-05-31T06:22:26.799Z,11192
2017-05-31T06:23:37.179Z,11384
2017-05-31T06:24:47.535Z,10944
2017-05-31T06:25:57.897Z,11028
2017-05-31T06:27:07.943Z,10952
2017-05-31T06:28:18.296Z,9200
2017-05-31T06:29:28.732Z,10648
2017-05-31T06:30:37.845Z,10420
2017-05-31T06:31:48.224Z,10432
2017-05-31T06:32:58.590Z,10276
2017-05-31T06:34:08.640Z,10148
2017-05-31T06:35:19.049Z,9904
2017-05-31T06:36:28.792Z,9756
2017-05-31T06:37:38.843Z,9304
2017-05-31T06:38:48.887Z,9760
2017-05-31T06:39:59.248Z,9696
2017-05-31T06:41:09.036Z,8700
2017-05-31T06:42:18.768Z,8440
2017-05-31T06:43:29.126Z,9312
2017-05-31T06:44:39.482Z,4348
2017-05-31T06:45:49.526Z,4116
2017-05-31T06:46:59.835Z,4200
2017-05-31T06:48:09.890Z,4404
2017-05-31T06:49:19.936Z,6080
2017-05-31T06:50:30.298Z,7188
2017-05-31T06:51:40.666Z,8664
2017-05-31T06:52:51.087Z,8748
2017-05-31T06:54:00.879Z,8568
2017-05-31T06:55:11.255Z,8260
2017-05-31T06:56:21.314Z,8224
2017-05-31T06:57:31.672Z,8116
2017-05-31T06:58:42.073Z,7920
2017-05-31T06:59:52.446Z,7756
2017-05-31T07:01:02.820Z,7576
2017-05-31T07:02:13.175Z,7480
2017-05-31T07:03:23.220Z,7164
2017-05-31T07:04:33.625Z,7120
2017-05-31T07:05:43.973Z,6976
2017-05-31T07:06:54.333Z,6544
2017-05-31T07:08:04.386Z,6076
2017-05-31T07:09:14.738Z,5944
2017-05-31T07:10:25.161Z,5988
2017-05-31T07:11:35.513Z,6020
2017-05-31T07:12:45.876Z,6024
2017-05-31T07:13:56.244Z,5996
2017-05-31T07:15:06.606Z,6036
2017-05-31T07:16:17.051Z,5828
2017-05-31T07:17:27.419Z,5712
2017-05-31T07:18:37.762Z,5824
2017-05-31T07:19:48.129Z,5784
2017-05-31T07:20:57.860Z,5856
2017-05-31T07:22:08.271Z,6004
2017-05-31T07:23:18.319Z,6068
2017-05-31T07:24:28.688Z,6056
2017-05-31T07:25:39.052Z,6108
2017-05-31T07:26:49.422Z,5936
2017-05-31T07:27:59.524Z,6028
2017-05-31T07:29:09.256Z,6148
2017-05-31T07:30:19.624Z,6220
2017-05-31T07:31:30.004Z,6232
2017-05-31T07:32:40.352Z,6252
2017-05-31T07:33:50.425Z,5964
2017-05-31T07:35:00.781Z,6180
2017-05-31T07:36:11.155Z,6252
2017-05-31T07:37:21.526Z,6280
2017-05-31T07:38:31.916Z,6292
2017-05-31T07:39:42.335Z,6280
2017-05-31T07:40:52.700Z,5944
2017-05-31T07:42:03.066Z,6336
2017-05-31T07:43:12.488Z,6376
2017-05-31T07:44:22.846Z,6380
2017-05-31T07:45:32.967Z,6448
2017-05-31T07:46:43.330Z,6460
2017-05-31T07:47:53.691Z,6488
2017-05-31T07:49:04.057Z,6488
2017-05-31T07:50:14.427Z,6508
2017-05-31T07:51:24.852Z,6540
2017-05-31T07:52:34.915Z,6600
2017-05-31T07:53:45.284Z,6624
2017-05-31T07:54:55.651Z,6620
2017-05-31T07:56:06.027Z,6656
2017-05-31T07:57:16.389Z,6696
2017-05-31T07:58:26.437Z,6704
2017-05-31T07:59:36.806Z,6688
2017-05-31T08:00:47.175Z,6660
2017-05-31T08:01:57.529Z,6740
2017-05-31T08:03:07.886Z,6512
2017-05-31T08:04:18.255Z,6592
2017-05-31T08:05:28.318Z,6600
2017-05-31T08:06:38.687Z,6700
2017-05-31T08:07:49.081Z,6700
2017-05-31T08:08:59.183Z,6780
2017-05-31T08:10:09.550Z,6844
2017-05-31T08:11:19.928Z,6888
2017-05-31T08:12:29.681Z,6964
2017-05-31T08:13:39.729Z,6964
2017-05-31T08:14:50.157Z,7016
2017-05-31T08:16:00.519Z,7008
2017-05-31T08:17:10.914Z,6996
2017-05-31T08:18:21.257Z,7008
2017-05-31T08:19:31.307Z,6968
2017-05-31T08:20:41.365Z,7048
2017-05-31T08:21:51.406Z,7084
2017-05-31T08:23:01.144Z,7100
2017-05-31T08:24:11.190Z,7000
2017-05-31T08:25:21.258Z,7024
2017-05-31T08:26:31.663Z,7056
2017-05-31T08:27:41.721Z,7148
2017-05-31T08:28:51.787Z,7224
2017-05-31T08:30:01.844Z,7200
2017-05-31T08:31:12.246Z,7224
2017-05-31T08:32:22.345Z,7232
2017-05-31T08:33:32.721Z,7164
2017-05-31T08:34:43.079Z,7140
2017-05-31T08:35:53.128Z,7228
2017-05-31T08:37:03.491Z,7324
2017-05-31T08:38:13.598Z,7380
2017-05-31T08:39:23.953Z,7416
2017-05-31T08:40:34.007Z,7456
2017-05-31T08:41:44.375Z,7476
2017-05-31T08:42:54.413Z,7604
2017-05-31T08:44:04.826Z,7796
2017-05-31T08:45:15.185Z,7980
2017-05-31T08:46:25.224Z,8024
2017-05-31T08:47:34.961Z,8312
2017-05-31T08:48:45.022Z,8648
2017-05-31T08:49:55.438Z,8684
2017-05-31T08:51:05.172Z,8952
2017-05-31T08:52:15.534Z,8848
2017-05-31T08:53:26.105Z,8616
2017-05-31T08:54:36.474Z,7124
2017-05-31T08:55:46.943Z,9892
2017-05-31T08:56:57.020Z,10284
2017-05-31T08:58:07.361Z,9412
2017-05-31T08:59:17.717Z,9916
2017-05-31T09:00:28.099Z,10996
2017-05-31T09:01:38.802Z,10696
2017-05-31T09:02:48.863Z,10816
2017-05-31T09:03:59.226Z,10928
2017-05-31T09:05:09.257Z,11656
2017-05-31T09:06:19.623Z,11864
2017-05-31T09:07:29.714Z,11768
2017-05-31T09:08:40.075Z,12136
2017-05-31T09:09:50.440Z,12632
2017-05-31T09:11:00.502Z,10924
2017-05-31T09:12:10.872Z,9972
2017-05-31T09:13:21.247Z,10656
2017-05-31T09:14:31.296Z,11524
2017-05-31T09:15:41.658Z,11540
2017-05-31T09:16:52.031Z,12156
2017-05-31T09:18:02.391Z,10296
2017-05-31T09:19:12.484Z,10604
2017-05-31T09:20:22.905Z,9616
2017-05-31T09:21:33.260Z,11344
2017-05-31T09:22:42.999Z,9736
2017-05-31T09:23:53.065Z,10928
2017-05-31T09:25:03.577Z,10792
2017-05-31T09:26:13.934Z,11308
2017-05-31T09:27:24.296Z,12396
2017-05-31T09:28:34.662Z,12568
2017-05-31T09:29:45.069Z,11836
2017-05-31T09:30:55.163Z,11920
2017-05-31T09:32:04.893Z,11540
2017-05-31T09:33:15.254Z,11104
2017-05-31T09:34:25.386Z,9572
2017-05-31T09:35:35.454Z,9728
2017-05-31T09:36:45.235Z,10788
2017-05-31T09:37:55.601Z,9512
2017-05-31T09:39:05.965Z,10528
2017-05-31T09:40:16.342Z,9804
2017-05-31T09:41:26.700Z,8976
2017-05-31T09:42:37.109Z,8776
2017-05-31T09:43:47.170Z,9204
2017-05-31T09:44:57.224Z,10460
2017-05-31T09:46:07.581Z,11488
2017-05-31T09:47:17.323Z,12496
2017-05-31T09:48:27.137Z,10408
2017-05-31T09:49:37.189Z,10388
2017-05-31T09:50:47.251Z,10816
2017-05-31T09:51:57.629Z,10720
2017-05-31T09:53:08.006Z,13076
2017-05-31T09:54:18.418Z,12540
2017-05-31T09:55:28.790Z,10688
2017-05-31T09:56:38.846Z,10876
2017-05-31T09:57:49.211Z,9356
2017-05-31T09:58:59.256Z,9200
2017-05-31T10:00:09.774Z,8456
2017-05-31T10:01:19.513Z,8320
2017-05-31T10:02:29.888Z,8716
2017-05-31T10:03:39.947Z,10100
2017-05-31T10:04:50.364Z,8732
2017-05-31T10:06:00.419Z,8944
2017-05-31T10:07:10.793Z,9252
2017-05-31T10:08:21.172Z,9720
2017-05-31T10:09:31.527Z,9832
2017-05-31T10:10:41.903Z,9916
2017-05-31T10:11:51.987Z,10048
2017-05-31T10:13:02.579Z,9932
2017-05-31T10:14:12.957Z,9684
2017-05-31T10:15:23.009Z,9608
2017-05-31T10:16:33.375Z,9644
2017-05-31T10:17:43.487Z,9880
2017-05-31T10:18:53.845Z,10032
2017-05-31T10:20:03.893Z,10000
2017-05-31T10:21:14.280Z,10268
2017-05-31T10:22:24.651Z,11428
2017-05-31T10:23:34.742Z,10400
2017-05-31T10:24:45.102Z,10620
2017-05-31T10:25:55.478Z,13016
2017-05-31T10:27:05.865Z,13116
2017-05-31T10:28:16.254Z,11436
2017-05-31T10:29:26.669Z,13448
2017-05-31T10:30:36.740Z,13208
2017-05-31T10:31:47.150Z,12984
2017-05-31T10:32:57.211Z,12956
2017-05-31T10:34:07.588Z,12884
2017-05-31T10:35:18.068Z,12808
2017-05-31T10:36:28.442Z,12708
2017-05-31T10:37:38.797Z,12560
2017-05-31T10:38:49.180Z,12324
2017-05-31T10:39:59.553Z,11636
2017-05-31T10:41:09.371Z,11200
2017-05-31T10:42:19.422Z,10840
2017-05-31T10:43:29.482Z,10464
2017-05-31T10:44:39.849Z,10188
2017-05-31T10:45:49.902Z,10080
2017-05-31T10:47:00.019Z,9788
2017-05-31T10:48:10.397Z,7068
2017-05-31T10:49:20.474Z,9244
2017-05-31T10:50:30.856Z,9696
2017-05-31T10:51:40.613Z,9884
2017-05-31T10:52:51.041Z,6544
2017-05-31T10:54:01.429Z,9948
2017-05-31T10:55:11.501Z,9996
2017-05-31T10:56:21.872Z,9264
2017-05-31T10:57:32.233Z,10004
2017-05-31T10:58:42.631Z,10256
2017-05-31T10:59:52.685Z,10692
2017-05-31T11:01:02.723Z,10780
2017-05-31T11:02:12.785Z,8680
2017-05-31T11:03:22.532Z,7072
2017-05-31T11:04:32.945Z,11080
2017-05-31T11:05:43.316Z,8624
2017-05-31T11:06:53.692Z,11404
2017-05-31T11:08:04.066Z,11528
2017-05-31T11:09:14.134Z,11668
2017-05-31T11:10:24.528Z,11752
2017-05-31T11:11:34.898Z,11680
2017-05-31T11:12:45.257Z,11252
2017-05-31T11:13:55.616Z,11964
2017-05-31T11:15:05.976Z,12320
2017-05-31T11:16:15.764Z,12716
2017-05-31T11:17:26.152Z,11692
2017-05-31T11:18:36.206Z,13072
2017-05-31T11:19:46.563Z,13256
2017-05-31T11:20:56.632Z,13316
2017-05-31T11:22:07.043Z,13276
2017-05-31T11:23:17.416Z,13544
2017-05-31T11:24:27.182Z,13348
2017-05-31T11:25:37.559Z,12924
2017-05-31T11:26:47.936Z,12612
2017-05-31T11:27:58.318Z,11864
2017-05-31T11:29:08.685Z,8072
2017-05-31T11:30:19.053Z,7464
2017-05-31T11:31:29.115Z,7436
2017-05-31T11:32:39.169Z,7524
2017-05-31T11:33:49.266Z,8816
2017-05-31T11:34:59.308Z,8200
2017-05-31T11:36:09.689Z,8520
2017-05-31T11:37:20.077Z,12804
2017-05-31T11:38:30.434Z,12964
2017-05-31T11:39:40.839Z,12868
2017-05-31T11:40:50.904Z,12552
2017-05-31T11:42:01.279Z,9360
2017-05-31T11:43:11.664Z,9348
2017-05-31T11:44:22.030Z,10616
2017-05-31T11:45:32.428Z,9988
2017-05-31T11:46:42.798Z,9696
2017-05-31T11:47:53.188Z,8232
2017-05-31T11:49:03.562Z,9416
2017-05-31T11:50:13.934Z,7168
2017-05-31T11:51:24.345Z,9720
2017-05-31T11:52:34.709Z,6636
2017-05-31T11:53:45.128Z,6380
2017-05-31T11:54:55.565Z,6988
2017-05-31T11:56:05.929Z,6112
2017-05-31T11:57:16.594Z,5428
2017-05-31T11:58:26.664Z,5052
2017-05-31T11:59:37.021Z,4764
2017-05-31T12:00:47.387Z,4484
2017-05-31T12:01:57.459Z,4244
2017-05-31T12:03:07.572Z,4144
2017-05-31T12:04:17.623Z,4168
2017-05-31T12:05:27.355Z,4292
2017-05-31T12:06:37.932Z,4500
2017-05-31T12:07:47.959Z,4844
2017-05-31T12:08:57.761Z,5552
2017-05-31T12:10:07.807Z,5996
2017-05-31T12:11:18.160Z,6696
2017-05-31T12:12:27.905Z,6180
2017-05-31T12:13:37.632Z,6532
2017-05-31T12:14:48.046Z,5604
2017-05-31T12:15:57.789Z,5716
2017-05-31T12:17:07.822Z,5844
2017-05-31T12:18:18.180Z,5620
2017-05-31T12:19:28.547Z,5124
2017-05-31T12:20:38.909Z,5892
2017-05-31T12:21:48.700Z,6532
2017-05-31T12:22:59.072Z,6488
2017-05-31T12:24:09.455Z,6796
2017-05-31T12:25:19.807Z,5008
2017-05-31T12:26:30.207Z,4648
2017-05-31T12:27:40.568Z,4340
2017-05-31T12:28:50.930Z,4240
2017-05-31T12:30:01.302Z,4152
2017-05-31T12:31:11.031Z,4036
2017-05-31T12:32:21.470Z,3952
2017-05-31T12:33:31.508Z,3948
2017-05-31T12:34:41.875Z,3932
2017-05-31T12:35:52.248Z,3876
2017-05-31T12:37:02.643Z,3812
2017-05-31T12:38:12.758Z,3756
2017-05-31T12:39:22.820Z,3696
2017-05-31T12:40:33.189Z,3660
2017-05-31T12:41:43.250Z,3784
2017-05-31T12:42:53.620Z,3668
2017-05-31T12:44:03.986Z,3632
2017-05-31T12:45:14.035Z,3644
2017-05-31T12:46:24.079Z,3648
2017-05-31T12:47:34.454Z,3692
2017-05-31T12:48:44.818Z,3900
2017-05-31T12:49:55.173Z,4404
2017-05-31T12:51:05.535Z,5080
2017-05-31T12:52:15.920Z,6768
2017-05-31T12:53:26.283Z,7076
2017-05-31T12:54:36.685Z,6608
2017-05-31T12:55:46.411Z,4428
2017-05-31T12:56:56.453Z,3884
2017-05-31T12:58:06.831Z,3744
2017-05-31T12:59:16.873Z,3464
2017-05-31T13:00:27.236Z,3204
2017-05-31T13:01:37.592Z,2948
2017-05-31T13:02:47.957Z,2840
2017-05-31T13:03:58.313Z,2788
2017-05-31T13:05:08.372Z,2768
2017-05-31T13:06:18.737Z,2780
2017-05-31T13:07:29.112Z,2820
2017-05-31T13:08:39.161Z,2880
2017-05-31T13:09:49.533Z,2936
2017-05-31T13:10:59.885Z,3008
2017-05-31T13:12:10.299Z,3048
2017-05-31T13:13:20.341Z,3052
2017-05-31T13:14:30.392Z,3032
2017-05-31T13:15:40.761Z,3008
2017-05-31T13:16:50.822Z,3000
2017-05-31T13:18:01.246Z,2992
2017-05-31T13:19:11.627Z,2992
2017-05-31T13:20:21.980Z,2992
2017-05-31T13:21:32.041Z,2988
2017-05-31T13:22:42.413Z,3012
2017-05-31T13:23:52.465Z,3024
2017-05-31T13:25:02.846Z,3016
2017-05-31T13:26:12.579Z,3016
2017-05-31T13:27:22.706Z,3000
2017-05-31T13:28:33.075Z,2992
2017-05-31T13:29:43.488Z,2992
2017-05-31T13:30:53.839Z,2996
2017-05-31T13:32:04.187Z,2984
2017-05-31T13:33:14.537Z,2968
2017-05-31T13:34:24.902Z,2952
2017-05-31T13:35:35.310Z,2948
2017-05-31T13:36:45.660Z,2956
2017-05-31T13:37:56.015Z,2976
2017-05-31T13:39:06.372Z,3008
2017-05-31T13:40:16.726Z,3064
2017-05-31T13:41:27.131Z,3120
2017-05-31T13:42:37.517Z,3164
2017-05-31T13:43:47.863Z,3212
2017-05-31T13:44:58.227Z,3248
2017-05-31T13:46:08.589Z,3280
2017-05-31T13:47:18.985Z,3320
2017-05-31T13:48:29.313Z,3348
2017-05-31T13:49:39.381Z,3372
2017-05-31T13:50:49.732Z,3412
2017-05-31T13:51:59.476Z,3472
2017-05-31T13:53:09.890Z,3540
2017-05-31T13:54:19.633Z,3604
2017-05-31T13:55:30.070Z,3644
2017-05-31T13:56:40.427Z,3668
2017-05-31T13:57:50.462Z,3680
2017-05-31T13:59:00.188Z,3660
2017-05-31T14:00:10.220Z,3632
2017-05-31T14:01:20.574Z,3600
2017-05-31T14:02:30.920Z,3544
2017-05-31T14:03:41.273Z,3488
2017-05-31T14:04:51.699Z,3452
2017-05-31T14:06:01.743Z,3444
2017-05-31T14:07:12.105Z,3444
2017-05-31T14:08:22.161Z,3432
2017-05-31T14:09:32.526Z,3404
2017-05-31T14:10:42.940Z,3376
2017-05-31T14:11:53.311Z,3348
2017-05-31T14:13:03.373Z,3316
2017-05-31T14:14:13.748Z,3300
2017-05-31T14:15:23.807Z,3268
2017-05-31T14:16:33.905Z,3220
2017-05-31T14:17:44.305Z,3168
2017-05-31T14:18:54.718Z,3104
2017-05-31T14:20:04.768Z,3036
2017-05-31T14:21:14.820Z,2976
2017-05-31T14:22:25.232Z,2904
2017-05-31T14:23:35.622Z,2868
2017-05-31T14:24:45.961Z,2840
2017-05-31T14:25:56.010Z,2828
2017-05-31T14:27:06.395Z,2816
2017-05-31T14:28:16.812Z,2796
2017-05-31T14:29:27.182Z,2780
2017-05-31T14:30:37.606Z,2764
2017-05-31T14:31:47.649Z,2748
2017-05-31T14:32:58.036Z,2712
2017-05-31T14:34:08.444Z,2672
2017-05-31T14:35:18.493Z,2640
2017-05-31T14:36:28.862Z,2608
2017-05-31T14:37:39.258Z,2576
2017-05-31T14:38:49.303Z,2532
2017-05-31T14:39:59.646Z,2504
2017-05-31T14:41:10.007Z,2492
2017-05-31T14:42:20.374Z,2488
2017-05-31T14:43:30.750Z,2484
2017-05-31T14:44:40.785Z,2488
2017-05-31T14:45:50.816Z,2500
2017-05-31T14:47:01.242Z,2524
2017-05-31T14:48:11.604Z,2552
2017-05-31T14:49:21.939Z,2600
2017-05-31T14:50:32.004Z,2664
2017-05-31T14:51:41.738Z,2744
2017-05-31T14:52:51.830Z,2836
2017-05-31T14:54:02.264Z,2948
2017-05-31T14:55:12.318Z,3072
2017-05-31T14:56:22.377Z,3216
2017-05-31T14:57:32.430Z,3372
2017-05-31T14:58:42.855Z,3532
2017-05-31T14:59:52.899Z,3660
2017-05-31T15:01:02.631Z,3748
2017-05-31T15:02:12.996Z,3808
2017-05-31T15:03:23.051Z,3860
2017-05-31T15:04:33.458Z,3912
2017-05-31T15:05:43.505Z,3964
2017-05-31T15:06:53.864Z,4032
2017-05-31T15:08:04.306Z,4136
2017-05-31T15:09:14.714Z,4388
2017-05-31T15:10:25.093Z,4908
2017-05-31T15:11:35.454Z,5716
2017-05-31T15:12:45.832Z,6680
2017-05-31T15:13:56.193Z,6984
2017-05-31T15:15:06.242Z,6996
2017-05-31T15:16:16.664Z,6908
2017-05-31T15:17:27.062Z,5916
2017-05-31T15:18:37.124Z,4668
2017-05-31T15:19:47.495Z,4304
2017-05-31T15:20:57.536Z,4212
2017-05-31T15:22:07.948Z,5276
2017-05-31T15:23:18.026Z,4752
2017-05-31T15:24:28.387Z,4092
2017-05-31T15:25:38.752Z,3428
2017-05-31T15:26:49.111Z,3236
2017-05-31T15:27:59.522Z,3124
2017-05-31T15:29:09.565Z,3112
2017-05-31T15:30:19.625Z,3144
2017-05-31T15:31:30.014Z,3144
2017-05-31T15:32:40.370Z,3132
2017-05-31T15:33:50.776Z,3120
2017-05-31T15:35:01.137Z,3124
2017-05-31T15:36:10.909Z,3116
2017-05-31T15:37:21.279Z,3100
2017-05-31T15:38:31.648Z,3088
2017-05-31T15:39:42.050Z,3084
2017-05-31T15:40:52.421Z,3060
2017-05-31T15:42:02.770Z,3028
2017-05-31T15:43:13.155Z,2992
2017-05-31T15:44:23.509Z,2952
2017-05-31T15:45:33.593Z,2908
2017-05-31T15:46:43.957Z,2880
2017-05-31T15:47:54.334Z,2876
2017-05-31T15:49:04.694Z,2900
2017-05-31T15:50:15.060Z,2948
2017-05-31T15:51:25.426Z,2992
2017-05-31T15:52:35.783Z,3032
2017-05-31T15:53:46.151Z,3068
2017-05-31T15:54:56.204Z,3112
2017-05-31T15:56:06.271Z,3164
2017-05-31T15:57:16.676Z,3212
2017-05-31T15:58:27.020Z,3280
2017-05-31T15:59:37.368Z,3376
2017-05-31T16:00:47.090Z,3520
2017-05-31T16:01:57.472Z,3792
2017-05-31T16:03:07.872Z,4276
2017-05-31T16:04:17.912Z,4512
2017-05-31T16:05:28.276Z,4596
2017-05-31T16:06:38.650Z,4644
2017-05-31T16:07:49.025Z,4952
2017-05-31T16:08:59.434Z,4748
2017-05-31T16:10:09.807Z,5100
2017-05-31T16:11:19.849Z,4836
2017-05-31T16:12:30.218Z,4512
2017-05-31T16:13:40.584Z,4092
2017-05-31T16:14:51.008Z,3900
2017-05-31T16:16:01.363Z,3708
2017-05-31T16:17:11.752Z,3504